首页
METAR-TAF:

METAR-TAF

机场 :

Uden, 荷兰

纬度: 51-39N, 经度: 005-42E, 海拔: 22米

当前天气观测

该预报发布于20分钟前的13:25 UTC
风速7节,风向,在北转西北东北之间变化
温度 17°C
湿度 82%
气压 1010 hPa
能见度10公里或以上
散云层高于1200英尺
多云层高于1400英尺
阴天层高于1700英尺

METAR: EHVK 211325Z AUTO 01007KT 340V050 9999 SCT012 BKN014 OVC017 17/14 Q1010 GRN TEMPO FEW007 BKN010

时间: 15:45 (13:45 UTC)

预报

该预报发布于1小时和3分钟前的12:42 UTC
预报有效从21日的 13点(UTC)到 22日的 01点(UTC)
风速8节,风向
能见度10公里或以上
散云层高于1500英尺
多云层高于2000英尺
短暂存在
从 21日的 13点(UTC)到 21日的 19点(UTC)
少量云层高于800英尺
散云层高于1200英尺
多云层高于1700英尺
成为
从 21日的 17点(UTC)到 21日的 20点(UTC)
多云层高于2000英尺

TAF: EHVK 211242Z 2113/2201 01008KT 9999 SCT015 BKN020 TEMPO 2113/2119 FEW008 SCT012 BKN017 BECMG 2117/2120 BKN020

超过4000个机场的气象观测和天气预报(METAR&TAF报告)。

可查询的气象台以黄色和红色小点在地图上表示。

将鼠标移到小点上方,可查看气象台名称。

然后点击查看天气观测和预报。

如需切换地图:点击带黑十字的绿色按钮放大地图;点击带横线的绿色按钮缩小地图;或者点击绿色箭头查看邻近地区的地图。


METAR-TAF: